| time (UTC) | temp C | wind direction | speed KPH | gust KPH | rain 1hr cm | rain 24hr cm | rain mn cm | humidity % | barometer mb |
| 20260906224945 | 21 | 118 | 9.7 | 16.1 | 0.00 | 0.15 | 0.00 | 39 | 1026.4 |
| 20260906223945 | 22 | 118 | 9.7 | 19.3 | 0.00 | 0.15 | 0.00 | 37 | 1026.4 |
| 20260906221946 | 21 | 108 | 9.7 | 20.9 | 0.00 | 0.15 | 0.00 | 40 | 1026.7 |
| 20260906220945 | 22 | 94 | 4.8 | 16.1 | 0.00 | 0.15 | 0.00 | 39 | 1026.7 |
| 20260906214945 | 22 | 315 | 4.8 | 9.7 | 0.00 | 0.15 | 0.00 | 31 | 1026.8 |
| 20260906213946 | 23 | 315 | 3.2 | 8.0 | 0.00 | 0.15 | 0.00 | 28 | 1026.9 |
| 20260906212945 | 23 | 316 | 3.2 | 9.7 | 0.00 | 0.15 | 0.00 | 29 | 1026.8 |
| 20260906211945 | 23 | 316 | 6.4 | 16.1 | 0.00 | 0.15 | 0.00 | 28 | 1026.8 |
| 20260906210945 | 23 | 312 | 6.4 | 16.1 | 0.00 | 0.15 | 0.00 | 27 | 1026.9 |
| 20260906205946 | 24 | 307 | 6.4 | 14.5 | 0.00 | 0.15 | 0.00 | 27 | 1027.0 |
| 20260906204946 | 24 | 303 | 4.8 | 11.3 | 0.00 | 0.15 | 0.00 | 26 | 1027.0 |
| 20260906203945 | 25 | 309 | 8.0 | 17.7 | 0.00 | 0.15 | 0.00 | 25 | 1027.1 |
| 20260906202945 | 25 | 310 | 4.8 | 12.9 | 0.00 | 0.15 | 0.00 | 28 | 1027.1 |
| 20260906201946 | 25 | 319 | 11.3 | 19.3 | 0.00 | 0.15 | 0.00 | 26 | 1027.2 |
| 20260906195945 | 25 | 326 | 6.4 | 16.1 | 0.00 | 0.15 | 0.00 | 26 | 1027.3 |
| 20260906194946 | 24 | 343 | 6.4 | 14.5 | 0.00 | 0.15 | 0.00 | 28 | 1027.4 |
| 20260906193946 | 23 | 310 | 9.7 | 20.9 | 0.00 | 0.15 | 0.00 | 27 | 1027.6 |
| 20260906192947 | 24 | 304 | 6.4 | 12.9 | 0.00 | 0.15 | 0.00 | 30 | 1027.8 |
| 20260906191946 | 25 | 312 | 3.2 | 16.1 | 0.00 | 0.15 | 0.00 | 26 | 1028.0 |
| 20260906190945 | 24 | 311 | 4.8 | 14.5 | 0.00 | 0.15 | 0.00 | 31 | 1028.0 |
| 20260906185945 | 24 | 313 | 3.2 | 8.0 | 0.00 | 0.15 | 0.00 | 31 | 1028.1 |
| 20260906184946 | 23 | 312 | 4.8 | 17.7 | 0.00 | 0.15 | 0.00 | 33 | 1028.2 |
| 20260906183946 | 23 | 314 | 3.2 | 11.3 | 0.00 | 0.15 | 0.00 | 30 | 1028.5 |
| 20260906181945 | 23 | 292 | 4.8 | 9.7 | 0.00 | 0.15 | 0.00 | 33 | 1028.9 |
| 20260906180945 | 22 | 322 | 4.8 | 12.9 | 0.00 | 0.15 | 0.00 | 36 | 1029.1 |
| 20260906175945 | 22 | 325 | 3.2 | 8.0 | 0.00 | 0.15 | 0.00 | 36 | 1029.4 |
| 20260906174945 | 21 | 323 | 3.2 | 11.3 | 0.00 | 0.15 | 0.00 | 39 | 1029.7 |
| 20260906172945 | 20 | 319 | 6.4 | 12.9 | 0.00 | 0.15 | 0.00 | 42 | 1030.0 |
| 20260906171945 | 20 | 320 | 4.8 | 12.9 | 0.00 | 0.15 | 0.00 | 41 | 1030.1 |
| 20260906170945 | 20 | 320 | 4.8 | 9.7 | 0.00 | 0.15 | 0.00 | 42 | 1030.2 |
| 20260906165946 | 20 | 320 | 4.8 | 11.3 | 0.00 | 0.15 | 0.00 | 41 | 1030.2 |
| 20260906164945 | 21 | 320 | 3.2 | 8.0 | 0.00 | 0.15 | 0.00 | 43 | 1030.4 |
| 20260906163945 | 20 | 10 | 1.6 | 6.4 | 0.00 | 0.15 | 0.00 | 45 | 1030.4 |
| 20260906161946 | 18 | 288 | 3.2 | 6.4 | 0.00 | 0.15 | 0.00 | 46 | 1030.5 |
| 20260906160945 | 18 | 98 | 1.6 | 8.0 | 0.00 | 0.15 | 0.00 | 46 | 1030.7 |
| 20260906155945 | 17 | 100 | 1.6 | 3.2 | 0.00 | 0.15 | 0.00 | 55 | 1030.8 |
| 20260906154945 | 15 | 101 | 3.2 | 4.8 | 0.00 | 0.15 | 0.00 | 56 | 1030.9 |
| 20260906153945 | 15 | 100 | 1.6 | 3.2 | 0.00 | 0.15 | 0.00 | 58 | 1030.9 |
| 20260906151945 | 14 | 101 | 1.6 | 4.8 | 0.00 | 0.15 | 0.00 | 60 | 1030.8 |
| 20260906150945 | 13 | 101 | 1.6 | 4.8 | 0.00 | 0.15 | 0.00 | 63 | 1030.9 |
| 20260906145945 | 13 | 101 | 3.2 | 8.0 | 0.00 | 0.15 | 0.00 | 63 | 1031.0 |
| 20260906143945 | 11 | 0 | 0.0 | 0.0 | 0.00 | 0.15 | 0.00 | 70 | 1031.1 |
| 20260906142945 | 11 | 0 | 0.0 | 0.0 | 0.00 | 0.15 | 0.00 | 73 | 1031.1 |
| 20260906141945 | 11 | 0 | 0.0 | 0.0 | 0.00 | 0.15 | 0.00 | 72 | 1031.2 |
| 20260906140945 | 10 | 0 | 0.0 | 0.0 | 0.00 | 0.15 | 0.00 | 78 | 1031.0 |
| 20260906135945 | 8 | 0 | 0.0 | 0.0 | 0.00 | 0.15 | 0.00 | 82 | 1031.0 |
| 20260906134946 | 9 | 0 | 0.0 | 0.0 | 0.00 | 0.15 | 0.00 | 79 | 1031.1 |
| 20260906133945 | 9 | 0 | 0.0 | 0.0 | 0.00 | 0.15 | 0.00 | 82 | 1030.8 |
| 20260906131945 | 7 | 0 | 0.0 | 0.0 | 0.00 | 0.15 | 0.00 | 87 | 1030.8 |
| 20260906130945 | 7 | 0 | 0.0 | 1.6 | 0.00 | 0.15 | 0.00 | 85 | 1030.6 |
| 20260906125945 | 7 | 0 | 0.0 | 1.6 | 0.00 | 0.15 | 0.00 | 86 | 1030.5 |
| 20260906124946 | 7 | 0 | 0.0 | 0.0 | 0.00 | 0.15 | 0.00 | 85 | 1030.4 |
| 20260906123946 | 7 | 0 | 0.0 | 0.0 | 0.00 | 0.15 | 0.00 | 84 | 1030.2 |
| 20260906121945 | 7 | 0 | 0.0 | 0.0 | 0.00 | 0.15 | 0.00 | 84 | 1030.2 |
| 20260906120945 | 8 | 0 | 0.0 | 0.0 | 0.00 | 0.15 | 0.00 | 84 | 1030.3 |
| 20260906115945 | 8 | 0 | 0.0 | 0.0 | 0.00 | 0.15 | 0.00 | 84 | 1030.2 |
| 20260906114945 | 8 | 0 | 0.0 | 0.0 | 0.00 | 0.15 | 0.00 | 84 | 1030.1 |
| 20260906113947 | 8 | 0 | 0.0 | 0.0 | 0.00 | 0.15 | 0.00 | 84 | 1030.3 |
| 20260906112947 | 8 | 0 | 0.0 | 0.0 | 0.00 | 0.15 | 0.00 | 84 | 1030.4 |
| 20260906111945 | 8 | 0 | 0.0 | 0.0 | 0.00 | 0.15 | 0.00 | 86 | 1030.3 |
| 20260906105945 | 8 | 0 | 0.0 | 0.0 | 0.00 | 0.15 | 0.00 | 82 | 1030.2 |
| 20260906104945 | 9 | 0 | 0.0 | 1.6 | 0.00 | 0.15 | 0.00 | 81 | 1030.3 |
| 20260906103945 | 8 | 0 | 0.0 | 0.0 | 0.00 | 0.15 | 0.00 | 81 | 1030.1 |
| 20260906102945 | 9 | 0 | 0.0 | 0.0 | 0.00 | 0.15 | 0.00 | 79 | 1030.1 |
| 20260906101945 | 10 | 0 | 0.0 | 0.0 | 0.00 | 0.15 | 0.00 | 78 | 1030.1 |
| 20260906100945 | 8 | 0 | 0.0 | 0.0 | 0.00 | 0.15 | 0.00 | 81 | 1030.0 |
| 20260906095945 | 8 | 0 | 0.0 | 0.0 | 0.00 | 0.15 | 0.00 | 83 | 1029.9 |
| 20260906094946 | 8 | 0 | 0.0 | 0.0 | 0.00 | 0.15 | 0.00 | 83 | 1030.0 |
| 20260906090946 | 10 | 0 | 0.0 | 0.0 | 0.00 | 0.15 | 0.00 | 77 | 1030.0 |
| 20260906085945 | 10 | 0 | 0.0 | 3.2 | 0.00 | 0.15 | 0.00 | 79 | 1029.9 |
| 20260906084945 | 10 | 0 | 0.0 | 4.8 | 0.00 | 0.15 | 0.00 | 79 | 1029.9 |
| 20260906083945 | 9 | 0 | 0.0 | 3.2 | 0.00 | 0.15 | 0.00 | 80 | 1029.8 |
| 20260906082945 | 10 | 0 | 0.0 | 1.6 | 0.00 | 0.15 | 0.00 | 80 | 1029.8 |
| 20260906080945 | 10 | 0 | 0.0 | 0.0 | 0.00 | 0.15 | 0.00 | 75 | 1029.8 |
| 20260906075945 | 11 | 0 | 0.0 | 0.0 | 0.00 | 0.15 | 0.00 | 75 | 1029.9 |
| 20260906074945 | 11 | 0 | 0.0 | 0.0 | 0.00 | 0.15 | 0.00 | 74 | 1029.8 |
| 20260906073945 | 11 | 0 | 0.0 | 0.0 | 0.00 | 0.15 | 0.00 | 73 | 1030.0 |
| 20260906072945 | 12 | 0 | 0.0 | 0.0 | 0.00 | 0.15 | 0.00 | 71 | 1029.9 |
| 20260906071945 | 12 | 0 | 0.0 | 0.0 | 0.00 | 0.15 | 0.00 | 69 | 1029.9 |
| 20260906070945 | 13 | 0 | 0.0 | 4.8 | 0.00 | 0.15 | 0.00 | 65 | 1029.7 |
| 20260906065945 | 13 | 0 | 0.0 | 3.2 | 0.00 | 0.15 | 0.00 | 67 | 1029.6 |
| 20260906064945 | 12 | 0 | 0.0 | 0.0 | 0.00 | 0.15 | 0.00 | 69 | 1029.8 |
| 20260906063945 | 12 | 0 | 0.0 | 0.0 | 0.00 | 0.15 | 0.00 | 69 | 1029.8 |
| 20260906062945 | 13 | 0 | 0.0 | 0.0 | 0.00 | 0.15 | 0.00 | 67 | 1029.8 |
| 20260906061945 | 12 | 0 | 0.0 | 0.0 | 0.00 | 0.15 | 0.00 | 68 | 1029.6 |
| 20260906060945 | 13 | 0 | 0.0 | 0.0 | 0.00 | 0.15 | 0.00 | 64 | 1029.8 |
| 20260906055952 | 13 | 100 | 1.6 | 4.8 | 0.00 | 0.15 | 0.00 | 65 | 1029.9 |
| 20260906054945 | 14 | 100 | 1.6 | 4.8 | 0.00 | 0.15 | 0.15 | 61 | 1029.9 |
| 20260906053946 | 15 | 101 | 3.2 | 9.7 | 0.00 | 0.15 | 0.15 | 57 | 1029.8 |
| 20260906051946 | 15 | 99 | 6.4 | 11.3 | 0.00 | 0.15 | 0.15 | 57 | 1029.8 |
| 20260906045945 | 14 | 95 | 6.4 | 11.3 | 0.00 | 0.15 | 0.15 | 60 | 1029.8 |
| 20260906044945 | 14 | 90 | 6.4 | 12.9 | 0.00 | 0.15 | 0.15 | 61 | 1029.9 |
| 20260906043945 | 14 | 95 | 6.4 | 12.9 | 0.00 | 0.15 | 0.15 | 62 | 1030.0 |
| 20260906042945 | 14 | 95 | 4.8 | 11.3 | 0.00 | 0.15 | 0.15 | 64 | 1030.1 |
| 20260906041945 | 14 | 91 | 6.4 | 11.3 | 0.00 | 0.15 | 0.15 | 64 | 1030.1 |
| 20260906040945 | 14 | 92 | 4.8 | 11.3 | 0.00 | 0.15 | 0.15 | 61 | 1030.3 |
| 20260906035946 | 14 | 89 | 6.4 | 17.7 | 0.00 | 0.15 | 0.15 | 62 | 1030.5 |
| 20260906033945 | 15 | 97 | 6.4 | 16.1 | 0.00 | 0.15 | 0.15 | 59 | 1030.3 |
| 20260906032945 | 14 | 112 | 4.8 | 8.0 | 0.00 | 0.15 | 0.15 | 61 | 1030.2 |
| 20260906031945 | 14 | 116 | 1.6 | 6.4 | 0.00 | 0.15 | 0.15 | 63 | 1030.2 |
| 20260906030946 | 13 | 0 | 0.0 | 3.2 | 0.00 | 0.15 | 0.15 | 66 | 1029.9 |
| 20260906025945 | 14 | 0 | 0.0 | 3.2 | 0.00 | 0.15 | 0.15 | 63 | 1029.7 |
| 20260906024945 | 14 | 0 | 0.0 | 3.2 | 0.00 | 0.15 | 0.15 | 62 | 1029.6 |
| 20260906023945 | 15 | 116 | 1.6 | 3.2 | 0.00 | 0.15 | 0.15 | 60 | 1029.5 |
| 20260906021945 | 15 | 116 | 3.2 | 4.8 | 0.00 | 0.15 | 0.15 | 57 | 1029.3 |
| 20260906020946 | 16 | 115 | 4.8 | 8.0 | 0.03 | 0.15 | 0.15 | 55 | 1029.1 |
| 20260906015946 | 15 | 112 | 3.2 | 6.4 | 0.03 | 0.15 | 0.15 | 58 | 1029.1 |
| 20260906012945 | 16 | 106 | 8.0 | 17.7 | 0.03 | 0.15 | 0.15 | 55 | 1028.9 |
| 20260906011945 | 16 | 125 | 4.8 | 11.3 | 0.03 | 0.15 | 0.15 | 59 | 1029.1 |
| 20260906010945 | 17 | 127 | 4.8 | 12.9 | 0.00 | 0.13 | 0.13 | 52 | 1029.2 |
| 20260906005945 | 17 | 98 | 6.4 | 11.3 | 0.00 | 0.13 | 0.13 | 50 | 1029.2 |
| 20260906003945 | 17 | 103 | 6.4 | 12.9 | 0.00 | 0.13 | 0.13 | 45 | 1029.2 |
| 20260906002945 | 17 | 131 | 11.3 | 24.1 | 0.00 | 0.13 | 0.13 | 52 | 1029.8 |
| 20260906001945 | 16 | 125 | 12.9 | 25.7 | 0.10 | 0.13 | 0.13 | 54 | 1029.1 |
| 20260906000945 | 17 | 120 | 8.0 | 16.1 | 0.13 | 0.13 | 0.13 | 52 | 1029.2 |
| 20260905235945 | 18 | 104 | 8.0 | 16.1 | 0.13 | 0.13 | 0.13 | 47 | 1029.2 |
| 20260905234946 | 17 | 111 | 8.0 | 12.9 | 0.13 | 0.13 | 0.13 | 54 | 1029.4 |
| 20260905233945 | 17 | 75 | 3.2 | 11.3 | 0.13 | 0.13 | 0.13 | 60 | 1029.4 |
| 20260905232944 | 16 | 359 | 1.6 | 6.4 | 0.13 | 0.13 | 0.13 | 74 | 1029.5 |
| 20260905231946 | 18 | 140 | 6.4 | 19.3 | 0.03 | 0.03 | 0.03 | 55 | 1029.4 |
| 20260905225945 | 23 | 347 | 1.6 | 6.4 | 0.00 | 0.00 | 0.00 | 32 | 1028.7 |